createdAt,value
2023-05-01T00:01:08.209Z,9.57
2023-05-01T00:03:35.129Z,14.07
2023-05-01T00:06:03.298Z,12.00
2023-05-01T00:08:29.769Z,12.00
2023-05-01T00:10:56.258Z,9.73
2023-05-01T00:13:24.367Z,10.43
2023-05-01T00:15:51.188Z,11.63
2023-05-01T00:18:17.605Z,7.75
2023-05-01T00:20:44.084Z,9.20
2023-05-01T00:23:12.536Z,11.18
2023-05-01T00:25:39.311Z,19.80
2023-05-01T00:28:06.460Z,12.00
2023-05-01T00:30:33.541Z,11.35
2023-05-01T00:33:01.004Z,12.52
2023-05-01T00:35:27.940Z,12.60
2023-05-01T00:37:54.372Z,9.25
2023-05-01T00:40:20.968Z,10.13
2023-05-01T00:42:47.405Z,8.27
2023-05-01T00:45:16.846Z,8.70
2023-05-01T00:47:43.289Z,11.02
2023-05-01T00:50:10.470Z,10.93
2023-05-01T00:52:37.241Z,13.80
2023-05-01T00:55:05.300Z,11.13
2023-05-01T00:57:32.598Z,11.73
2023-05-01T00:59:59.034Z,11.98
2023-05-01T01:02:28.559Z,12.35
2023-05-01T01:04:55.228Z,10.80
2023-05-01T01:07:22.016Z,8.93
2023-05-01T01:09:48.554Z,10.35
2023-05-01T01:12:26.450Z,8.77
2023-05-01T01:15:28.345Z,9.02
2023-05-01T01:17:54.925Z,7.90
2023-05-01T01:20:30.671Z,9.00
2023-05-01T01:23:15.822Z,8.48
2023-05-01T01:25:45.584Z,6.57
2023-05-01T01:28:18.593Z,9.23
2023-05-01T01:31:00.426Z,7.25
2023-05-01T01:33:36.011Z,7.95
2023-05-01T01:36:11.890Z,7.80
2023-05-01T01:38:43.791Z,7.38
2023-05-01T01:41:13.670Z,6.10
2023-05-01T01:43:45.582Z,7.20
2023-05-01T01:46:12.194Z,8.52
2023-05-01T01:48:42.222Z,9.00
2023-05-01T01:51:16.665Z,10.77
2023-05-01T01:53:45.956Z,6.35
2023-05-01T01:56:12.554Z,10.15
2023-05-01T01:58:39.816Z,7.63
2023-05-01T02:01:06.693Z,9.90
2023-05-01T02:03:33.609Z,9.27
2023-05-01T02:06:00.629Z,12.52
2023-05-01T02:08:29.164Z,14.20
2023-05-01T02:11:01.857Z,7.45
2023-05-01T02:13:29.433Z,12.48
2023-05-01T02:15:58.082Z,7.20
2023-05-01T02:18:26.357Z,7.40
2023-05-01T02:20:53.371Z,6.88
2023-05-01T02:23:19.802Z,10.15
2023-05-01T02:25:49.210Z,10.68
2023-05-01T02:28:16.172Z,9.73
2023-05-01T02:30:42.686Z,7.07
2023-05-01T02:33:09.316Z,9.82
2023-05-01T02:35:39.642Z,11.65
2023-05-01T02:38:06.199Z,12.77
2023-05-01T02:40:33.498Z,11.50
2023-05-01T02:43:01.477Z,9.30
2023-05-01T02:45:29.467Z,8.80
2023-05-01T02:47:57.774Z,10.88
2023-05-01T02:50:24.812Z,11.32
2023-05-01T02:52:51.267Z,9.95
2023-05-01T02:55:18.430Z,12.65
2023-05-01T02:57:44.890Z,7.60
2023-05-01T03:00:14.073Z,11.63
2023-05-01T03:02:40.846Z,8.45
2023-05-01T03:05:07.730Z,9.80
2023-05-01T03:07:37.205Z,6.30
2023-05-01T03:10:04.294Z,10.10
2023-05-01T03:12:30.999Z,8.13
2023-05-01T03:14:57.390Z,7.82
2023-05-01T03:17:24.070Z,8.63
2023-05-01T03:19:51.551Z,8.02
2023-05-01T03:22:18.103Z,7.90
2023-05-01T03:24:44.579Z,8.75
2023-05-01T03:27:11.555Z,7.95
2023-05-01T03:29:40.680Z,9.68
2023-05-01T03:32:07.351Z,9.27
2023-05-01T03:34:34.269Z,9.77
2023-05-01T03:37:00.656Z,8.23
2023-05-01T03:39:27.067Z,10.95
2023-05-01T03:41:53.467Z,8.90
2023-05-01T03:44:22.064Z,9.65
2023-05-01T03:46:48.474Z,14.05
2023-05-01T03:49:14.867Z,5.07
2023-05-01T03:51:41.250Z,9.23
2023-05-01T03:54:07.970Z,7.72
2023-05-01T03:56:36.759Z,7.13
2023-05-01T03:59:03.179Z,12.70
2023-05-01T04:01:29.643Z,7.63
2023-05-01T04:03:56.228Z,10.85
2023-05-01T04:06:22.936Z,11.27
2023-05-01T04:08:49.517Z,14.18
2023-05-01T04:11:15.970Z,6.38
2023-05-01T04:13:42.436Z,7.60
2023-05-01T04:16:08.903Z,7.13
2023-05-01T04:18:35.533Z,9.40
2023-05-01T04:21:01.975Z,18.83
2023-05-01T04:23:28.400Z,9.32
2023-05-01T04:25:56.985Z,8.40
2023-05-01T04:28:23.504Z,8.35
2023-05-01T04:30:50.230Z,10.95
2023-05-01T04:33:16.727Z,7.57
2023-05-01T04:35:43.472Z,10.52
2023-05-01T04:38:10.567Z,11.40
2023-05-01T04:40:37.136Z,7.70
2023-05-01T04:43:03.543Z,11.13
2023-05-01T04:45:29.954Z,7.82
2023-05-01T04:47:56.391Z,8.68
2023-05-01T04:50:22.934Z,9.68
2023-05-01T04:52:49.677Z,13.60
2023-05-01T04:55:16.619Z,8.95
2023-05-01T04:57:43.151Z,16.17
2023-05-01T05:00:09.866Z,9.10
2023-05-01T05:02:36.578Z,12.75
2023-05-01T05:05:03.131Z,12.00
2023-05-01T05:07:32.618Z,7.32
2023-05-01T05:09:59.173Z,9.88
2023-05-01T05:12:25.626Z,11.93
2023-05-01T05:14:52.039Z,9.13
2023-05-01T05:17:18.417Z,8.75
2023-05-01T05:19:44.823Z,10.95
2023-05-01T05:22:12.625Z,11.35
2023-05-01T05:24:41.368Z,11.05
2023-05-01T05:27:08.391Z,10.23
2023-05-01T05:29:35.054Z,8.70
2023-05-01T05:32:01.702Z,11.90
2023-05-01T05:34:28.331Z,10.98
2023-05-01T05:36:54.736Z,10.32
2023-05-01T05:39:22.366Z,10.48
2023-05-01T05:41:49.376Z,8.90
2023-05-01T05:44:16.118Z,9.85
2023-05-01T05:46:42.556Z,9.65
2023-05-01T05:49:09.213Z,11.10
2023-05-01T05:51:35.892Z,9.40
2023-05-01T05:54:02.292Z,7.80
2023-05-01T05:56:28.675Z,11.82
2023-05-01T05:58:55.117Z,15.00
2023-05-01T06:01:21.485Z,8.02
2023-05-01T06:03:47.999Z,11.82
2023-05-01T06:06:17.592Z,9.27
2023-05-01T06:08:46.239Z,10.57
2023-05-01T06:11:12.703Z,11.18
2023-05-01T06:13:39.122Z,8.23
2023-05-01T06:16:07.433Z,12.57
2023-05-01T06:18:33.888Z,8.85
2023-05-01T06:21:00.342Z,8.25
2023-05-01T06:23:26.735Z,12.98
2023-05-01T06:25:53.204Z,11.02
2023-05-01T06:28:19.608Z,9.45
2023-05-01T06:30:46.339Z,10.52
2023-05-01T06:33:12.758Z,10.32
2023-05-01T06:35:39.813Z,8.95
2023-05-01T06:38:06.247Z,12.98
2023-05-01T06:40:36.862Z,10.93
2023-05-01T06:43:03.517Z,11.15
2023-05-01T06:45:29.958Z,12.02
2023-05-01T06:47:56.504Z,10.30
2023-05-01T06:50:22.972Z,16.42
2023-05-01T06:52:49.398Z,10.85
2023-05-01T06:55:16.288Z,13.35
2023-05-01T06:57:42.890Z,10.20
2023-05-01T07:00:11.324Z,10.77
2023-05-01T07:02:38.297Z,13.73
2023-05-01T07:05:05.685Z,14.13
2023-05-01T07:07:32.228Z,10.43
2023-05-01T07:09:59.083Z,12.52
2023-05-01T07:12:25.844Z,9.63
2023-05-01T07:14:52.378Z,13.32
2023-05-01T07:17:18.901Z,14.73
2023-05-01T07:19:45.427Z,12.63
2023-05-01T07:22:12.446Z,10.10
2023-05-01T07:24:38.863Z,12.93
2023-05-01T07:27:05.469Z,10.27
2023-05-01T07:29:31.876Z,14.27
2023-05-01T07:31:58.652Z,11.38
2023-05-01T07:34:25.164Z,14.05
2023-05-01T07:36:51.604Z,10.38
2023-05-01T07:39:18.035Z,15.82
2023-05-01T07:41:44.431Z,11.75
2023-05-01T07:44:11.028Z,12.10
2023-05-01T07:46:37.863Z,15.20
2023-05-01T07:49:04.407Z,14.00
2023-05-01T07:51:31.092Z,16.70
2023-05-01T07:53:57.501Z,16.15
2023-05-01T07:56:23.919Z,13.18
2023-05-01T07:58:50.400Z,9.57
2023-05-01T08:01:16.884Z,8.88
2023-05-01T08:03:48.070Z,11.50
2023-05-01T08:06:15.992Z,9.52
2023-05-01T08:08:42.463Z,14.55
2023-05-01T08:11:09.279Z,11.82
2023-05-01T08:13:35.712Z,11.65
2023-05-01T08:16:03.190Z,10.45
2023-05-01T08:18:30.081Z,11.10
2023-05-01T08:20:56.609Z,11.73
2023-05-01T08:23:25.256Z,8.82
2023-05-01T08:25:51.994Z,7.97
2023-05-01T08:28:20.840Z,8.07
2023-05-01T08:30:49.146Z,12.13
2023-05-01T08:33:16.396Z,8.68
2023-05-01T08:35:43.010Z,11.23
2023-05-01T08:38:10.346Z,10.88
2023-05-01T08:40:38.158Z,7.88
2023-05-01T08:43:05.025Z,12.38
2023-05-01T08:45:37.902Z,8.57
2023-05-01T08:48:10.223Z,15.30
2023-05-01T08:50:38.786Z,8.45
2023-05-01T08:53:06.386Z,11.60
2023-05-01T08:55:34.820Z,9.30
2023-05-01T08:58:01.426Z,9.70
2023-05-01T09:00:28.591Z,9.27
2023-05-01T09:02:55.344Z,10.13
2023-05-01T09:05:21.929Z,8.65
2023-05-01T09:07:48.390Z,9.02
2023-05-01T09:10:19.031Z,6.97
2023-05-01T09:12:49.185Z,7.50
2023-05-01T09:15:16.006Z,7.70
2023-05-01T09:17:42.519Z,8.32
2023-05-01T09:20:09.986Z,10.05
2023-05-01T09:22:36.550Z,9.10
2023-05-01T09:25:04.031Z,5.25
2023-05-01T09:27:37.324Z,9.07
2023-05-01T09:30:06.007Z,7.20
2023-05-01T09:32:33.567Z,5.45
2023-05-01T09:35:10.333Z,8.95
2023-05-01T09:37:36.914Z,6.72
2023-05-01T09:40:06.506Z,9.50
2023-05-01T09:42:39.978Z,9.50
2023-05-01T09:45:12.067Z,10.27
2023-05-01T09:47:38.754Z,6.45
2023-05-01T09:50:05.495Z,10.25
2023-05-01T09:52:36.148Z,7.88
2023-05-01T09:55:31.688Z,9.38
2023-05-01T09:57:58.872Z,6.93
2023-05-01T10:00:25.378Z,7.53
2023-05-01T10:02:52.063Z,6.93
2023-05-01T10:05:18.929Z,8.98
2023-05-01T10:07:57.266Z,7.75
2023-05-01T10:10:23.924Z,7.90
2023-05-01T10:12:50.452Z,12.35
2023-05-01T10:15:24.540Z,9.30
2023-05-01T10:17:53.913Z,9.50
2023-05-01T10:20:20.976Z,10.77
2023-05-01T10:22:48.790Z,10.48
2023-05-01T10:25:17.636Z,13.38
2023-05-01T10:27:44.274Z,11.35
2023-05-01T10:30:11.171Z,11.60
2023-05-01T10:32:38.693Z,12.63
2023-05-01T10:35:18.897Z,10.70
2023-05-01T10:37:49.009Z,12.80
2023-05-01T10:40:34.392Z,13.90
2023-05-01T10:43:30.178Z,9.90
2023-05-01T10:46:16.907Z,14.80
2023-05-01T10:48:46.385Z,10.82
2023-05-01T10:51:13.561Z,12.40
2023-05-01T10:53:40.982Z,8.85
2023-05-01T10:56:27.797Z,11.85
2023-05-01T10:58:56.022Z,12.23
2023-05-01T11:01:29.184Z,9.23
2023-05-01T11:03:56.904Z,14.63
2023-05-01T11:06:24.159Z,15.98
2023-05-01T11:08:50.804Z,12.95
2023-05-01T11:11:23.655Z,11.32
2023-05-01T11:14:05.796Z,15.13
2023-05-01T11:16:38.528Z,16.20
2023-05-01T11:19:05.895Z,16.65
2023-05-01T11:21:34.074Z,12.02
2023-05-01T11:24:04.102Z,9.65
2023-05-01T11:26:32.398Z,17.83
2023-05-01T11:28:59.626Z,14.23
2023-05-01T11:31:28.925Z,18.27
2023-05-01T11:34:06.158Z,13.35
2023-05-01T11:40:21.866Z,12.18
2023-05-01T11:42:48.868Z,16.42
2023-05-01T11:45:15.403Z,13.30
2023-05-01T11:47:41.947Z,19.02
2023-05-01T11:50:09.172Z,13.55
2023-05-01T11:53:01.682Z,16.58
2023-05-01T11:55:31.792Z,10.45
2023-05-01T11:57:58.394Z,13.53
2023-05-01T12:00:36.798Z,11.60
2023-05-01T12:03:07.956Z,12.13
2023-05-01T12:05:38.202Z,13.88
2023-05-01T12:08:13.904Z,17.07
2023-05-01T12:10:42.040Z,16.83
2023-05-01T12:13:09.532Z,13.52
2023-05-01T12:15:37.427Z,20.05
2023-05-01T12:18:05.059Z,14.68
2023-05-01T12:20:39.336Z,13.00
2023-05-01T12:23:06.861Z,17.80
2023-05-01T12:25:34.204Z,18.00
2023-05-01T12:28:02.227Z,17.33
2023-05-01T12:30:29.666Z,15.88
2023-05-01T12:32:57.841Z,18.35
2023-05-01T12:35:33.229Z,18.15
2023-05-01T12:37:59.810Z,16.02
2023-05-01T12:40:26.947Z,17.60
2023-05-01T12:42:57.627Z,16.80
2023-05-01T12:45:24.278Z,11.18
2023-05-01T12:47:51.087Z,18.70
2023-05-01T12:50:17.623Z,20.42
2023-05-01T12:52:44.331Z,11.18
2023-05-01T12:55:12.584Z,13.80
2023-05-01T12:57:54.809Z,15.70
2023-05-01T13:00:21.335Z,18.85
2023-05-01T13:02:47.876Z,16.80
2023-05-01T13:05:14.336Z,15.48
2023-05-01T13:07:47.606Z,16.98
2023-05-01T13:10:14.950Z,16.17
2023-05-01T13:12:44.814Z,17.73
2023-05-01T13:15:21.603Z,15.73
2023-05-01T13:17:48.185Z,17.23
2023-05-01T13:20:15.550Z,15.50
2023-05-01T13:22:42.216Z,16.95
2023-05-01T13:25:19.738Z,20.35
2023-05-01T13:27:49.926Z,17.27
2023-05-01T13:30:18.493Z,20.35
2023-05-01T13:32:46.288Z,20.27
2023-05-01T13:35:12.706Z,20.02
2023-05-01T13:37:40.045Z,17.17
2023-05-01T13:40:06.794Z,18.77
2023-05-01T13:42:33.224Z,17.63
2023-05-01T13:45:00.167Z,18.08
2023-05-01T13:47:27.175Z,16.90
2023-05-01T13:49:54.040Z,18.10
2023-05-01T13:52:20.810Z,19.88
2023-05-01T13:54:48.266Z,18.33
2023-05-01T13:57:15.997Z,18.75
2023-05-01T13:59:43.260Z,26.15
2023-05-01T14:02:20.337Z,21.55
2023-05-01T14:04:47.036Z,32.85
2023-05-01T14:07:20.865Z,20.02
2023-05-01T14:09:52.412Z,22.58
2023-05-01T14:12:19.981Z,33.63
2023-05-01T14:14:49.636Z,18.30
2023-05-01T14:17:16.208Z,28.80
2023-05-01T14:19:42.700Z,24.40
2023-05-01T14:22:09.143Z,28.08
2023-05-01T14:24:40.509Z,21.58
2023-05-01T14:27:08.612Z,24.95
2023-05-01T14:29:35.013Z,21.48
2023-05-01T14:32:05.322Z,28.42
2023-05-01T14:34:33.383Z,27.63
2023-05-01T14:36:59.806Z,33.58
2023-05-01T14:39:27.094Z,24.25
2023-05-01T14:41:55.702Z,33.75
2023-05-01T14:44:25.299Z,24.20
2023-05-01T14:46:52.267Z,24.30
2023-05-01T14:49:22.740Z,29.08
2023-05-01T14:51:49.191Z,31.98
2023-05-01T14:54:15.881Z,31.48
2023-05-01T14:56:42.807Z,39.05
2023-05-01T14:59:09.429Z,26.30
2023-05-01T15:01:36.057Z,31.88
2023-05-01T15:04:03.770Z,23.85
2023-05-01T15:06:30.625Z,34.88
2023-05-01T15:08:57.074Z,29.27
2023-05-01T15:11:23.568Z,36.45
2023-05-01T15:13:50.551Z,33.05
2023-05-01T15:16:17.290Z,27.60
2023-05-01T15:18:43.936Z,36.10
2023-05-01T15:21:10.900Z,35.33
2023-05-01T15:23:37.480Z,33.17
2023-05-01T15:26:04.000Z,33.40
2023-05-01T15:28:30.547Z,29.02
2023-05-01T15:30:57.169Z,39.17
2023-05-01T15:33:23.865Z,46.88
2023-05-01T15:35:52.740Z,36.13
2023-05-01T15:38:20.980Z,41.92
2023-05-01T15:40:47.472Z,33.40
2023-05-01T15:43:13.933Z,36.75
2023-05-01T15:45:43.507Z,39.03
2023-05-01T15:48:11.289Z,35.60
2023-05-01T15:50:37.871Z,33.63
2023-05-01T15:53:04.316Z,32.10
2023-05-01T15:55:30.784Z,44.33
2023-05-01T15:58:00.288Z,38.10
2023-05-01T16:00:26.745Z,37.47
2023-05-01T16:02:53.335Z,40.35
2023-05-01T16:05:21.433Z,45.55
2023-05-01T16:07:50.473Z,34.08
2023-05-01T16:10:16.884Z,41.72
2023-05-01T16:12:43.342Z,38.20
2023-05-01T16:15:13.735Z,47.08
2023-05-01T16:17:43.633Z,41.33
2023-05-01T16:20:11.752Z,41.05
2023-05-01T16:22:39.079Z,35.20
2023-05-01T16:25:05.692Z,32.10
2023-05-01T16:27:32.139Z,33.00
2023-05-01T16:29:58.830Z,33.83
2023-05-01T16:32:25.935Z,36.00
2023-05-01T16:34:52.463Z,36.95
2023-05-01T16:37:21.080Z,33.67
2023-05-01T16:39:48.547Z,35.67
2023-05-01T16:42:15.330Z,30.73
2023-05-01T16:44:41.793Z,29.55
2023-05-01T16:47:10.906Z,32.78
2023-05-01T16:49:39.967Z,30.38
2023-05-01T16:52:06.475Z,31.48
2023-05-01T16:54:35.839Z,33.97
2023-05-01T16:57:03.216Z,31.25
2023-05-01T16:59:30.002Z,30.88
2023-05-01T17:01:56.681Z,29.90
2023-05-01T17:04:23.254Z,36.10
2023-05-01T17:06:49.974Z,24.77
2023-05-01T17:09:16.510Z,31.60
2023-05-01T17:11:43.151Z,24.00
2023-05-01T17:14:09.537Z,24.60
2023-05-01T17:16:36.248Z,24.55
2023-05-01T17:19:08.840Z,33.30
2023-05-01T17:21:35.576Z,24.92
2023-05-01T17:24:02.489Z,27.63
2023-05-01T17:26:28.901Z,27.33
2023-05-01T17:28:55.317Z,33.15
2023-05-01T17:31:22.685Z,30.42
2023-05-01T17:33:49.388Z,33.53
2023-05-01T17:36:15.856Z,28.65
2023-05-01T17:38:42.345Z,35.08
2023-05-01T17:41:08.751Z,25.33
2023-05-01T17:43:35.378Z,29.05
2023-05-01T17:46:01.866Z,23.35
2023-05-01T17:48:28.306Z,24.25
2023-05-01T17:50:55.795Z,32.03
2023-05-01T17:53:23.290Z,22.77
2023-05-01T17:55:49.849Z,22.95
2023-05-01T17:58:18.408Z,26.15
2023-05-01T18:00:44.854Z,26.90
2023-05-01T18:03:11.329Z,23.13
2023-05-01T18:05:37.872Z,22.77
2023-05-01T18:08:04.451Z,22.10
2023-05-01T18:10:31.293Z,25.33
2023-05-01T18:12:58.207Z,29.88
2023-05-01T18:15:24.742Z,28.05
2023-05-01T18:17:51.535Z,30.20
2023-05-01T18:20:18.009Z,31.83
2023-05-01T18:22:44.452Z,29.55
2023-05-01T18:25:11.130Z,22.27
2023-05-01T18:27:38.225Z,19.92
2023-05-01T18:30:05.283Z,19.92
2023-05-01T18:32:46.316Z,14.57
2023-05-01T18:35:13.948Z,13.98
2023-05-01T18:37:42.300Z,9.55
2023-05-01T18:40:09.639Z,14.25
2023-05-01T18:42:36.124Z,11.48
2023-05-01T18:45:03.210Z,9.75
2023-05-01T18:47:29.726Z,6.90
2023-05-01T18:49:56.313Z,8.38
2023-05-01T18:52:22.853Z,5.95
2023-05-01T18:54:49.312Z,4.80
2023-05-01T18:57:15.883Z,8.02
2023-05-01T18:59:43.652Z,6.97
2023-05-01T19:02:11.473Z,4.63
2023-05-01T19:04:49.266Z,6.22
2023-05-01T19:07:22.990Z,5.45
2023-05-01T19:09:49.460Z,5.53
2023-05-01T19:12:16.525Z,3.67
2023-05-01T19:14:42.971Z,4.72
2023-05-01T19:17:09.540Z,3.08
2023-05-01T19:19:36.054Z,5.65
2023-05-01T19:22:02.444Z,4.30
2023-05-01T19:24:28.867Z,2.78
2023-05-01T19:26:55.306Z,6.07
2023-05-01T19:29:21.739Z,2.58
2023-05-01T19:31:48.428Z,4.18
2023-05-01T19:34:16.925Z,3.08
2023-05-01T19:36:43.304Z,3.13
2023-05-01T19:39:10.176Z,3.72
2023-05-01T19:41:36.990Z,4.13
2023-05-01T19:44:03.578Z,5.57
2023-05-01T19:46:30.086Z,5.95
2023-05-01T19:48:56.472Z,5.90
2023-05-01T19:51:22.965Z,4.63
2023-05-01T19:53:49.353Z,6.60
2023-05-01T19:56:15.763Z,4.38
2023-05-01T19:58:42.223Z,5.53
2023-05-01T20:01:11.801Z,5.18
2023-05-01T20:03:38.507Z,2.85
2023-05-01T20:06:06.415Z,7.63
2023-05-01T20:08:33.449Z,4.97
2023-05-01T20:11:00.350Z,6.50
2023-05-01T20:13:26.817Z,2.45
2023-05-01T20:15:53.228Z,6.38
2023-05-01T20:18:19.924Z,4.20
2023-05-01T20:20:46.376Z,3.40
2023-05-01T20:23:13.807Z,4.03
2023-05-01T20:25:40.455Z,2.40
2023-05-01T20:28:07.259Z,3.08
2023-05-01T20:30:34.205Z,4.20
2023-05-01T20:33:03.219Z,4.13
2023-05-01T20:35:31.565Z,3.72
2023-05-01T20:37:58.563Z,2.00
2023-05-01T20:40:24.965Z,3.97
2023-05-01T20:42:51.923Z,2.40
2023-05-01T20:45:18.331Z,4.00
2023-05-01T20:47:45.329Z,4.75
2023-05-01T20:50:13.836Z,2.50
2023-05-01T20:52:40.310Z,3.40
2023-05-01T20:55:06.991Z,2.45
2023-05-01T20:57:34.839Z,1.55
2023-05-01T21:00:04.656Z,3.47
2023-05-01T21:02:31.336Z,2.75
2023-05-01T21:04:57.758Z,2.00
2023-05-01T21:07:25.525Z,2.95
2023-05-01T21:09:51.902Z,1.80
2023-05-01T21:12:18.299Z,1.73
2023-05-01T21:14:44.711Z,3.40
2023-05-01T21:17:11.344Z,1.70
2023-05-01T21:19:47.081Z,0.85
2023-05-01T21:22:14.901Z,0.93
2023-05-01T21:24:43.019Z,1.38
2023-05-01T21:27:09.523Z,2.05
2023-05-01T21:29:35.917Z,0.90
2023-05-01T21:32:03.892Z,0.80
2023-05-01T21:34:30.501Z,0.88
2023-05-01T21:36:57.083Z,2.03
2023-05-01T21:39:24.727Z,0.60
2023-05-01T21:41:51.240Z,0.65
2023-05-01T21:44:17.851Z,0.68
2023-05-01T21:46:44.285Z,0.40
2023-05-01T21:49:16.895Z,0.50
2023-05-01T21:51:43.410Z,0.43
2023-05-01T21:54:09.835Z,0.90
2023-05-01T21:56:36.314Z,0.75
2023-05-01T21:59:04.730Z,0.20
2023-05-01T22:01:31.634Z,0.45
2023-05-01T22:03:58.247Z,1.85
2023-05-01T22:06:24.782Z,0.28
2023-05-01T22:08:51.989Z,0.30
2023-05-01T22:11:19.580Z,0.30
2023-05-01T22:13:46.233Z,0.55
2023-05-01T22:16:14.128Z,1.30
2023-05-01T22:18:40.768Z,0.40
2023-05-01T22:21:07.225Z,0.90
2023-05-01T22:23:33.618Z,0.40
2023-05-01T22:26:00.281Z,0.68
2023-05-01T22:28:27.020Z,0.40
2023-05-01T22:30:53.465Z,0.55
2023-05-01T22:33:21.990Z,0.50
2023-05-01T22:35:48.730Z,0.40
2023-05-01T22:38:15.220Z,0.60
2023-05-01T22:40:41.618Z,0.40
2023-05-01T22:43:08.173Z,0.77
2023-05-01T22:45:34.854Z,0.75
2023-05-01T22:48:01.382Z,1.23
2023-05-01T22:50:27.799Z,0.40
2023-05-01T22:52:54.235Z,0.68
2023-05-01T22:55:20.752Z,1.10
2023-05-01T22:57:47.140Z,0.47
2023-05-01T23:00:13.838Z,0.40
2023-05-01T23:02:40.748Z,1.40
2023-05-01T23:05:07.872Z,0.43
2023-05-01T23:07:34.303Z,0.30
2023-05-01T23:10:01.152Z,0.30
2023-05-01T23:12:28.308Z,1.55
2023-05-01T23:14:55.136Z,0.43
2023-05-01T23:17:22.046Z,0.38
2023-05-01T23:19:48.550Z,0.20
2023-05-01T23:22:14.991Z,1.10
2023-05-01T23:24:50.796Z,0.85
2023-05-01T23:27:18.125Z,0.20
2023-05-01T23:29:54.983Z,1.00
2023-05-01T23:32:26.805Z,0.50
2023-05-01T23:35:04.888Z,0.40
2023-05-01T23:37:31.302Z,0.80
2023-05-01T23:39:59.715Z,1.05
2023-05-01T23:42:28.205Z,1.65
2023-05-01T23:44:55.402Z,0.82
2023-05-01T23:47:22.107Z,2.08
2023-05-01T23:49:49.100Z,0.90
2023-05-01T23:52:15.711Z,1.45
2023-05-01T23:54:42.213Z,1.10
2023-05-01T23:57:08.596Z,1.48
2023-05-01T23:59:35.460Z,1.00
